createdAt,value
2023-02-19T00:01:12.726Z,100.00
2023-02-19T00:03:40.648Z,100.00
2023-02-19T00:06:09.972Z,100.00
2023-02-19T00:08:37.901Z,100.00
2023-02-19T00:11:06.979Z,100.00
2023-02-19T00:13:41.807Z,100.00
2023-02-19T00:16:19.509Z,100.00
2023-02-19T00:18:46.401Z,100.00
2023-02-19T00:21:13.559Z,100.00
2023-02-19T00:23:40.216Z,100.00
2023-02-19T00:26:18.233Z,100.00
2023-02-19T00:28:46.519Z,100.00
2023-02-19T00:31:24.680Z,100.00
2023-02-19T00:33:53.293Z,100.00
2023-02-19T00:36:20.302Z,100.00
2023-02-19T00:38:46.990Z,100.00
2023-02-19T00:41:14.948Z,100.00
2023-02-19T00:43:41.243Z,100.00
2023-02-19T00:46:07.588Z,100.00
2023-02-19T00:48:33.893Z,100.00
2023-02-19T00:51:00.192Z,100.00
2023-02-19T00:53:26.479Z,100.00
2023-02-19T00:55:52.779Z,100.00
2023-02-19T00:58:19.092Z,100.00
2023-02-19T01:00:45.388Z,100.00
2023-02-19T01:03:11.698Z,100.00
2023-02-19T01:05:38.011Z,100.00
2023-02-19T01:08:04.517Z,100.00
2023-02-19T01:10:30.929Z,100.00
2023-02-19T01:12:57.241Z,100.00
2023-02-19T01:15:23.559Z,100.00
2023-02-19T01:17:49.877Z,100.00
2023-02-19T01:20:16.354Z,100.00
2023-02-19T01:22:42.660Z,100.00
2023-02-19T01:25:08.954Z,100.00
2023-02-19T01:27:35.265Z,100.00
2023-02-19T01:30:01.703Z,100.00
2023-02-19T01:32:28.064Z,100.00
2023-02-19T01:34:54.374Z,100.00
2023-02-19T01:37:20.677Z,100.00
2023-02-19T01:39:47.570Z,100.00
2023-02-19T01:42:15.692Z,100.00
2023-02-19T01:44:44.986Z,100.00
2023-02-19T01:47:12.560Z,100.00
2023-02-19T01:49:47.098Z,100.00
2023-02-19T01:52:18.729Z,100.00
2023-02-19T01:54:46.559Z,100.00
2023-02-19T01:57:18.807Z,100.00
2023-02-19T01:59:47.829Z,100.00
2023-02-19T02:02:14.342Z,100.00
2023-02-19T02:04:40.677Z,100.00
2023-02-19T02:07:07.499Z,100.00
2023-02-19T02:09:33.791Z,100.00
2023-02-19T02:12:00.104Z,100.00
2023-02-19T02:14:30.048Z,100.00
2023-02-19T02:17:24.386Z,100.00
2023-02-19T02:20:32.086Z,100.00
2023-02-19T02:23:46.559Z,100.00
2023-02-19T02:26:34.188Z,100.00
2023-02-19T02:29:27.878Z,100.00
2023-02-19T02:31:58.883Z,100.00
2023-02-19T02:34:34.514Z,100.00
2023-02-19T02:37:03.416Z,100.00
2023-02-19T02:39:31.368Z,100.00
2023-02-19T02:41:59.922Z,100.00
2023-02-19T02:44:35.040Z,100.00
2023-02-19T02:47:03.753Z,100.00
2023-02-19T02:49:30.635Z,100.00
2023-02-19T02:51:58.214Z,100.00
2023-02-19T02:54:31.128Z,100.00
2023-02-19T02:56:59.340Z,100.00
2023-02-19T02:59:31.099Z,99.88
2023-02-19T03:02:02.928Z,100.00
2023-02-19T03:05:00.550Z,100.00
2023-02-19T03:07:31.720Z,100.00
2023-02-19T03:10:02.489Z,100.00
2023-02-19T03:12:30.647Z,100.00
2023-02-19T03:15:02.884Z,100.00
2023-02-19T03:17:32.597Z,100.00
2023-02-19T03:20:03.338Z,99.83
2023-02-19T03:22:33.588Z,99.55
2023-02-19T03:25:05.124Z,99.53
2023-02-19T03:27:34.449Z,100.00
2023-02-19T03:30:08.220Z,100.00
2023-02-19T03:32:59.711Z,100.00
2023-02-19T03:35:31.327Z,99.97
2023-02-19T03:38:08.731Z,99.06
2023-02-19T03:40:50.341Z,98.90
2023-02-19T03:43:40.814Z,98.93
2023-02-19T03:46:07.088Z,99.29
2023-02-19T03:48:35.828Z,98.63
2023-02-19T03:51:09.066Z,98.77
2023-02-19T03:53:52.108Z,99.35
2023-02-19T03:56:27.177Z,99.21
2023-02-19T03:59:02.730Z,97.53
2023-02-19T04:01:44.471Z,97.47
2023-02-19T04:04:21.761Z,98.37
2023-02-19T04:06:54.188Z,98.88
2023-02-19T04:09:23.159Z,98.44
2023-02-19T04:11:51.095Z,97.45
2023-02-19T04:14:35.493Z,96.41
2023-02-19T04:17:06.393Z,96.44
2023-02-19T04:19:37.411Z,96.28
2023-02-19T04:22:07.708Z,96.11
2023-02-19T04:24:41.485Z,95.76
2023-02-19T04:27:09.563Z,95.89
2023-02-19T04:29:37.752Z,95.45
2023-02-19T04:32:05.597Z,95.37
2023-02-19T04:34:31.932Z,94.72
2023-02-19T04:36:58.244Z,94.18
2023-02-19T04:39:24.613Z,94.58
2023-02-19T04:41:50.926Z,94.30
2023-02-19T04:44:17.250Z,94.54
2023-02-19T04:46:43.548Z,94.53
2023-02-19T04:49:10.113Z,94.28
2023-02-19T04:51:36.428Z,94.38
2023-02-19T04:54:02.746Z,94.27
2023-02-19T04:56:29.074Z,94.86
2023-02-19T04:58:55.621Z,94.27
2023-02-19T05:01:22.095Z,94.52
2023-02-19T05:03:48.399Z,94.96
2023-02-19T05:06:14.951Z,94.94
2023-02-19T05:08:41.744Z,94.67
2023-02-19T05:11:10.193Z,93.91
2023-02-19T05:13:37.049Z,93.36
2023-02-19T05:16:06.495Z,93.33
2023-02-19T05:18:33.459Z,92.63
2023-02-19T05:21:00.520Z,92.51
2023-02-19T05:23:28.199Z,92.70
2023-02-19T05:25:54.562Z,91.93
2023-02-19T05:28:21.191Z,92.30
2023-02-19T05:30:52.533Z,92.86
2023-02-19T05:33:20.596Z,93.12
2023-02-19T05:35:49.545Z,92.63
2023-02-19T05:38:17.255Z,92.49
2023-02-19T05:40:44.835Z,92.12
2023-02-19T05:43:12.691Z,92.67
2023-02-19T05:45:39.383Z,92.64
2023-02-19T05:48:07.022Z,92.89
2023-02-19T05:50:35.469Z,92.98
2023-02-19T05:53:03.138Z,92.81
2023-02-19T05:55:30.428Z,92.41
2023-02-19T05:57:56.738Z,97.12
2023-02-19T06:00:23.212Z,100.00
2023-02-19T06:02:49.648Z,100.00
2023-02-19T06:05:16.042Z,100.00
2023-02-19T06:07:42.341Z,100.00
2023-02-19T06:10:10.323Z,100.00
2023-02-19T06:12:37.378Z,100.00
2023-02-19T06:15:05.727Z,100.00
2023-02-19T06:17:33.462Z,100.00
2023-02-19T06:20:00.427Z,100.00
2023-02-19T06:22:27.696Z,100.00
2023-02-19T06:24:54.076Z,100.00
2023-02-19T06:27:20.383Z,100.00
2023-02-19T06:29:46.693Z,100.00
2023-02-19T06:32:13.063Z,100.00
2023-02-19T06:34:39.448Z,100.00
2023-02-19T06:37:05.741Z,100.00
2023-02-19T06:39:32.151Z,100.00
2023-02-19T06:41:58.728Z,100.00
2023-02-19T06:44:25.192Z,100.00
2023-02-19T06:46:55.183Z,100.00
2023-02-19T06:49:21.960Z,100.00
2023-02-19T06:51:48.350Z,100.00
2023-02-19T06:54:14.661Z,100.00
2023-02-19T06:56:41.788Z,100.00
2023-02-19T06:59:11.368Z,100.00
2023-02-19T07:01:39.314Z,100.00
2023-02-19T07:04:07.209Z,100.00
2023-02-19T07:06:35.188Z,100.00
2023-02-19T07:09:01.891Z,100.00
2023-02-19T07:11:33.297Z,100.00
2023-02-19T07:14:01.827Z,100.00
2023-02-19T07:16:28.620Z,100.00
2023-02-19T07:18:59.574Z,100.00
2023-02-19T07:21:27.160Z,100.00
2023-02-19T07:23:54.043Z,100.00
2023-02-19T07:26:21.594Z,100.00
2023-02-19T07:28:49.618Z,100.00
2023-02-19T07:31:17.788Z,100.00
2023-02-19T07:33:44.657Z,100.00
2023-02-19T07:36:11.994Z,100.00
2023-02-19T07:38:38.511Z,100.00
2023-02-19T07:41:06.529Z,100.00
2023-02-19T07:43:35.682Z,100.00
2023-02-19T07:46:13.212Z,100.00
2023-02-19T07:48:42.061Z,100.00
2023-02-19T07:51:14.882Z,100.00
2023-02-19T07:53:41.184Z,100.00
2023-02-19T07:56:08.707Z,100.00
2023-02-19T07:58:35.293Z,100.00
2023-02-19T08:01:14.437Z,100.00
2023-02-19T08:03:41.616Z,100.00
2023-02-19T08:06:08.575Z,100.00
2023-02-19T08:08:34.914Z,100.00
2023-02-19T08:11:02.683Z,100.00
2023-02-19T08:13:30.741Z,100.00
2023-02-19T08:16:19.951Z,100.00
2023-02-19T08:18:47.917Z,100.00
2023-02-19T08:21:14.785Z,100.00
2023-02-19T08:23:41.193Z,100.00
2023-02-19T08:26:07.638Z,100.00
2023-02-19T08:28:34.024Z,100.00
2023-02-19T08:31:02.895Z,100.00
2023-02-19T08:33:29.351Z,100.00
2023-02-19T08:35:56.075Z,100.00
2023-02-19T08:38:22.951Z,100.00
2023-02-19T08:40:49.259Z,100.00
2023-02-19T08:43:16.941Z,100.00
2023-02-19T08:45:45.071Z,100.00
2023-02-19T08:48:11.940Z,100.00
2023-02-19T08:50:38.811Z,100.00
2023-02-19T08:53:06.446Z,100.00
2023-02-19T08:55:33.723Z,99.09
2023-02-19T08:58:00.239Z,97.96
2023-02-19T09:00:26.552Z,99.38
2023-02-19T09:02:52.880Z,97.58
2023-02-19T09:05:19.289Z,97.21
2023-02-19T09:07:45.596Z,97.32
2023-02-19T09:10:13.573Z,97.89
2023-02-19T09:12:40.572Z,98.79
2023-02-19T09:15:07.529Z,96.86
2023-02-19T09:17:33.839Z,97.22
2023-02-19T09:20:00.174Z,97.49
2023-02-19T09:22:26.489Z,97.27
2023-02-19T09:24:52.849Z,96.62
2023-02-19T09:27:20.359Z,96.69
2023-02-19T09:29:46.875Z,97.29
2023-02-19T09:32:14.018Z,97.32
2023-02-19T09:34:40.696Z,97.43
2023-02-19T09:37:07.731Z,95.32
2023-02-19T09:39:34.686Z,94.90
2023-02-19T09:42:09.222Z,94.42
2023-02-19T09:44:38.993Z,95.38
2023-02-19T09:47:21.078Z,95.83
2023-02-19T09:49:49.434Z,94.55
2023-02-19T09:52:19.692Z,92.39
2023-02-19T09:54:47.464Z,91.01
2023-02-19T09:57:17.454Z,90.05
2023-02-19T10:00:06.745Z,90.45
2023-02-19T10:02:33.968Z,89.85
2023-02-19T10:05:00.389Z,89.13
2023-02-19T10:07:38.985Z,90.64
2023-02-19T10:10:14.369Z,89.20
2023-02-19T10:12:50.312Z,86.65
2023-02-19T10:15:22.359Z,85.16
2023-02-19T10:17:48.707Z,87.84
2023-02-19T10:20:17.507Z,88.04
2023-02-19T10:22:43.901Z,86.84
2023-02-19T10:25:14.748Z,87.01
2023-02-19T10:27:41.089Z,86.23
2023-02-19T10:30:18.223Z,84.94
2023-02-19T10:32:59.424Z,86.67
2023-02-19T10:35:26.310Z,87.43
2023-02-19T10:37:52.960Z,85.98
2023-02-19T10:40:22.574Z,85.97
2023-02-19T10:42:52.598Z,84.75
2023-02-19T10:45:23.069Z,83.26
2023-02-19T10:47:50.178Z,83.03
2023-02-19T10:50:26.044Z,84.02
2023-02-19T10:52:55.643Z,83.77
2023-02-19T10:55:37.789Z,82.26
2023-02-19T10:58:24.722Z,82.44
2023-02-19T11:01:10.947Z,80.48
2023-02-19T11:03:38.214Z,82.25
2023-02-19T11:06:07.592Z,83.36
2023-02-19T11:08:57.078Z,82.55
2023-02-19T11:11:35.766Z,82.02
2023-02-19T11:14:14.179Z,79.43
2023-02-19T11:16:44.528Z,79.40
2023-02-19T11:19:23.838Z,77.13
2023-02-19T11:21:50.451Z,76.44
2023-02-19T11:24:30.912Z,78.51
2023-02-19T11:26:58.395Z,75.91
2023-02-19T11:29:25.314Z,75.39
2023-02-19T11:31:51.743Z,79.47
2023-02-19T11:34:18.077Z,77.73
2023-02-19T11:36:44.387Z,76.58
2023-02-19T11:39:10.640Z,75.78
2023-02-19T11:41:55.418Z,74.15
2023-02-19T11:44:50.566Z,74.34
2023-02-19T11:47:39.655Z,75.62
2023-02-19T11:50:22.898Z,75.94
2023-02-19T11:53:03.482Z,77.97
2023-02-19T11:55:45.031Z,78.77
2023-02-19T11:58:36.208Z,78.66
2023-02-19T12:01:30.318Z,76.35
2023-02-19T12:04:35.293Z,74.99
2023-02-19T12:07:24.797Z,74.28
2023-02-19T12:10:13.082Z,72.91
2023-02-19T12:13:02.617Z,71.62
2023-02-19T12:15:58.455Z,73.04
2023-02-19T12:18:39.762Z,72.76
2023-02-19T12:21:21.312Z,71.53
2023-02-19T12:24:08.383Z,74.44
2023-02-19T12:26:40.721Z,74.19
2023-02-19T12:29:44.925Z,76.12
2023-02-19T12:32:39.626Z,74.75
2023-02-19T12:35:20.758Z,74.68
2023-02-19T12:38:18.306Z,75.17
2023-02-19T12:41:05.116Z,72.98
2023-02-19T12:43:33.671Z,71.67
2023-02-19T12:46:08.312Z,69.53
2023-02-19T12:48:43.803Z,70.25
2023-02-19T12:51:23.793Z,70.49
2023-02-19T12:54:01.356Z,70.09
2023-02-19T12:56:36.078Z,70.57
2023-02-19T12:59:13.725Z,70.87
2023-02-19T13:01:50.420Z,70.65
2023-02-19T13:04:22.590Z,70.26
2023-02-19T13:06:55.726Z,69.93
2023-02-19T13:09:33.884Z,69.34
2023-02-19T13:12:08.198Z,70.15
2023-02-19T13:14:39.936Z,70.49
2023-02-19T13:17:17.381Z,73.25
2023-02-19T13:19:48.586Z,72.46
2023-02-19T13:22:42.647Z,71.96
2023-02-19T13:25:09.859Z,70.20
2023-02-19T13:28:20.297Z,69.55
2023-02-19T13:31:05.345Z,70.24
2023-02-19T13:34:03.712Z,69.17
2023-02-19T13:36:31.084Z,69.48
2023-02-19T13:38:59.719Z,69.66
2023-02-19T13:41:40.216Z,66.92
2023-02-19T13:44:14.850Z,67.80
2023-02-19T13:46:46.190Z,66.76
2023-02-19T13:49:27.855Z,67.04
2023-02-19T13:51:59.167Z,67.39
2023-02-19T13:54:31.186Z,67.83
2023-02-19T13:57:17.725Z,65.30
2023-02-19T13:59:44.844Z,66.47
2023-02-19T14:02:21.682Z,66.17
2023-02-19T14:04:59.910Z,65.57
2023-02-19T14:07:48.212Z,65.96
2023-02-19T14:10:50.673Z,67.27
2023-02-19T14:13:51.260Z,69.67
2023-02-19T14:16:46.740Z,69.57
2023-02-19T14:19:42.209Z,70.14
2023-02-19T14:22:45.468Z,68.64
2023-02-19T14:25:29.153Z,68.69
2023-02-19T14:27:59.821Z,67.79
2023-02-19T14:30:27.620Z,67.64
2023-02-19T14:33:07.657Z,70.00
2023-02-19T14:35:40.895Z,67.58
2023-02-19T14:38:15.824Z,68.25
2023-02-19T14:40:42.208Z,68.93
2023-02-19T14:43:14.184Z,68.58
2023-02-19T14:45:54.847Z,68.74
2023-02-19T14:48:38.207Z,70.45
2023-02-19T14:51:10.322Z,71.66
2023-02-19T14:53:44.146Z,69.79
2023-02-19T14:56:22.762Z,70.45
2023-02-19T14:59:12.013Z,70.13
2023-02-19T15:01:38.695Z,70.10
2023-02-19T15:04:06.141Z,69.62
2023-02-19T15:06:35.107Z,69.62
2023-02-19T15:09:06.913Z,70.88
2023-02-19T15:11:35.026Z,72.14
2023-02-19T15:14:07.050Z,72.62
2023-02-19T15:16:35.873Z,71.81
2023-02-19T15:19:06.217Z,70.83
2023-02-19T15:21:34.582Z,71.29
2023-02-19T15:24:03.832Z,71.67
2023-02-19T15:26:38.875Z,71.39
2023-02-19T15:29:11.950Z,71.96
2023-02-19T15:31:45.820Z,72.18
2023-02-19T15:34:17.220Z,72.21
2023-02-19T15:36:43.859Z,71.93
2023-02-19T15:39:25.240Z,73.75
2023-02-19T15:41:55.218Z,72.87
2023-02-19T15:44:29.499Z,71.96
2023-02-19T15:46:58.811Z,72.37
2023-02-19T15:49:40.977Z,73.66
2023-02-19T15:52:11.793Z,74.30
2023-02-19T15:54:52.604Z,73.96
2023-02-19T15:57:25.645Z,72.78
2023-02-19T16:00:02.718Z,72.45
2023-02-19T16:02:29.360Z,72.80
2023-02-19T16:04:56.326Z,73.17
2023-02-19T16:07:27.908Z,73.45
2023-02-19T16:10:18.426Z,74.15
2023-02-19T16:12:54.772Z,73.47
2023-02-19T16:15:21.225Z,74.21
2023-02-19T16:17:47.785Z,74.11
2023-02-19T16:20:22.604Z,74.86
2023-02-19T16:22:49.682Z,74.69
2023-02-19T16:25:29.084Z,74.10
2023-02-19T16:27:55.969Z,74.24
2023-02-19T16:30:31.449Z,74.66
2023-02-19T16:33:20.153Z,76.31
2023-02-19T16:35:47.314Z,81.41
2023-02-19T16:38:15.332Z,81.80
2023-02-19T16:40:50.529Z,79.13
2023-02-19T16:43:37.506Z,78.03
2023-02-19T16:46:03.918Z,79.86
2023-02-19T16:48:30.341Z,79.48
2023-02-19T16:50:56.736Z,77.44
2023-02-19T16:53:24.482Z,75.47
2023-02-19T16:55:52.076Z,75.16
2023-02-19T16:58:18.431Z,77.33
2023-02-19T17:00:44.816Z,80.13
2023-02-19T17:03:15.212Z,80.63
2023-02-19T17:05:42.035Z,80.10
2023-02-19T17:08:29.726Z,81.00
2023-02-19T17:10:56.329Z,81.01
2023-02-19T17:13:22.668Z,81.70
2023-02-19T17:15:49.035Z,83.15
2023-02-19T17:18:15.634Z,82.50
2023-02-19T17:20:43.486Z,80.82
2023-02-19T17:23:09.779Z,80.74
2023-02-19T17:25:36.156Z,82.96
2023-02-19T17:28:02.484Z,83.13
2023-02-19T17:30:31.746Z,83.01
2023-02-19T17:32:58.141Z,84.12
2023-02-19T17:35:24.780Z,83.86
2023-02-19T17:37:53.393Z,83.99
2023-02-19T17:40:33.581Z,84.96
2023-02-19T17:43:00.590Z,85.88
2023-02-19T17:45:27.055Z,86.35
2023-02-19T17:47:53.407Z,85.53
2023-02-19T17:50:22.427Z,84.65
2023-02-19T17:52:48.814Z,85.30
2023-02-19T17:55:16.295Z,84.81
2023-02-19T17:57:42.586Z,85.41
2023-02-19T18:00:10.794Z,86.10
2023-02-19T18:02:37.129Z,85.89
2023-02-19T18:05:03.458Z,85.31
2023-02-19T18:07:29.790Z,84.76
2023-02-19T18:09:56.104Z,84.87
2023-02-19T18:12:22.421Z,86.15
2023-02-19T18:14:48.722Z,86.04
2023-02-19T18:17:15.044Z,86.59
2023-02-19T18:19:44.078Z,86.17
2023-02-19T18:22:10.663Z,85.39
2023-02-19T18:24:37.242Z,85.93
2023-02-19T18:27:03.572Z,85.54
2023-02-19T18:29:29.888Z,84.52
2023-02-19T18:31:56.498Z,84.13
2023-02-19T18:34:22.842Z,85.92
2023-02-19T18:36:49.533Z,87.60
2023-02-19T18:39:16.158Z,88.29
2023-02-19T18:41:46.686Z,87.67
2023-02-19T18:44:12.973Z,86.29
2023-02-19T18:46:39.288Z,86.29
2023-02-19T18:49:06.627Z,86.40
2023-02-19T18:51:32.935Z,86.40
2023-02-19T18:53:59.226Z,85.82
2023-02-19T18:56:25.521Z,86.06
2023-02-19T18:58:55.116Z,86.51
2023-02-19T19:01:21.808Z,86.55
2023-02-19T19:03:48.194Z,86.99
2023-02-19T19:06:18.066Z,87.30
2023-02-19T19:08:44.471Z,87.50
2023-02-19T19:11:11.251Z,87.92
2023-02-19T19:13:37.741Z,87.68
2023-02-19T19:16:04.340Z,88.33
2023-02-19T19:18:31.219Z,88.38
2023-02-19T19:20:58.010Z,88.85
2023-02-19T19:23:24.373Z,89.47
2023-02-19T19:25:50.672Z,89.43
2023-02-19T19:28:17.047Z,89.54
2023-02-19T19:30:43.490Z,89.67
2023-02-19T19:33:09.850Z,90.11
2023-02-19T19:35:36.244Z,89.74
2023-02-19T19:38:02.603Z,89.78
2023-02-19T19:40:28.914Z,90.19
2023-02-19T19:42:55.210Z,90.67
2023-02-19T19:45:21.789Z,90.58
2023-02-19T19:47:48.405Z,90.66
2023-02-19T19:50:16.497Z,90.92
2023-02-19T19:52:42.834Z,91.17
2023-02-19T19:55:09.620Z,91.47
2023-02-19T19:57:36.188Z,91.69
2023-02-19T20:00:02.922Z,91.50
2023-02-19T20:02:29.327Z,91.06
2023-02-19T20:04:55.705Z,91.37
2023-02-19T20:07:22.097Z,91.75
2023-02-19T20:09:49.653Z,91.89
2023-02-19T20:12:16.959Z,92.05
2023-02-19T20:14:44.475Z,91.90
2023-02-19T20:17:10.804Z,91.77
2023-02-19T20:19:37.237Z,92.38
2023-02-19T20:22:03.635Z,92.70
2023-02-19T20:24:30.673Z,92.76
2023-02-19T20:26:59.153Z,92.89
2023-02-19T20:29:26.620Z,92.91
2023-02-19T20:31:53.017Z,93.11
2023-02-19T20:34:19.372Z,92.90
2023-02-19T20:36:47.492Z,93.34
2023-02-19T20:39:15.838Z,93.30
2023-02-19T20:41:50.141Z,93.36
2023-02-19T20:44:17.302Z,93.05
2023-02-19T20:46:45.076Z,92.65
2023-02-19T20:49:12.681Z,92.79
2023-02-19T20:51:53.171Z,92.61
2023-02-19T20:54:22.231Z,92.68
2023-02-19T20:56:50.954Z,92.56
2023-02-19T20:59:18.292Z,92.96
2023-02-19T21:01:44.838Z,92.81
2023-02-19T21:04:12.119Z,92.87
2023-02-19T21:06:38.552Z,92.94
2023-02-19T21:09:05.349Z,92.94
2023-02-19T21:11:32.394Z,93.12
2023-02-19T21:13:58.728Z,93.11
2023-02-19T21:16:30.563Z,93.46
2023-02-19T21:18:57.402Z,93.63
2023-02-19T21:21:24.941Z,93.91
2023-02-19T21:23:52.467Z,93.76
2023-02-19T21:26:18.891Z,93.51
2023-02-19T21:28:45.256Z,93.46
2023-02-19T21:31:11.877Z,93.18
2023-02-19T21:33:38.252Z,93.29
2023-02-19T21:36:05.285Z,93.42
2023-02-19T21:38:32.725Z,92.95
2023-02-19T21:40:59.084Z,92.88
2023-02-19T21:43:25.391Z,92.62
2023-02-19T21:45:51.733Z,92.51
2023-02-19T21:48:18.069Z,91.93
2023-02-19T21:50:44.451Z,92.29
2023-02-19T21:53:11.171Z,91.78
2023-02-19T21:55:38.538Z,91.33
2023-02-19T21:58:04.921Z,90.60
2023-02-19T22:00:31.262Z,91.03
2023-02-19T22:02:57.663Z,90.97
2023-02-19T22:05:25.250Z,91.08
2023-02-19T22:07:51.610Z,91.47
2023-02-19T22:10:17.933Z,90.82
2023-02-19T22:12:44.244Z,90.94
2023-02-19T22:15:10.606Z,90.01
2023-02-19T22:17:36.896Z,90.32
2023-02-19T22:20:03.305Z,89.81
2023-02-19T22:22:29.618Z,89.37
2023-02-19T22:24:55.942Z,89.41
2023-02-19T22:27:22.277Z,89.65
2023-02-19T22:29:48.573Z,89.56
2023-02-19T22:32:15.140Z,89.45
2023-02-19T22:34:42.068Z,89.87
2023-02-19T22:37:09.275Z,89.56
2023-02-19T22:39:35.567Z,89.25
2023-02-19T22:42:01.985Z,88.86
2023-02-19T22:44:28.285Z,88.46
2023-02-19T22:46:55.995Z,88.11
2023-02-19T22:49:23.190Z,87.73
2023-02-19T22:51:53.456Z,87.86
2023-02-19T22:54:19.916Z,88.89
2023-02-19T22:56:46.237Z,88.51
2023-02-19T22:59:12.534Z,89.06
2023-02-19T23:01:38.870Z,89.37
2023-02-19T23:04:05.261Z,90.20
2023-02-19T23:06:34.370Z,90.58
2023-02-19T23:09:08.546Z,90.90
2023-02-19T23:11:38.286Z,90.81
2023-02-19T23:14:05.663Z,90.54
2023-02-19T23:16:32.262Z,90.79
2023-02-19T23:18:58.601Z,90.71
2023-02-19T23:21:24.897Z,89.59
2023-02-19T23:23:51.209Z,89.31
2023-02-19T23:26:17.719Z,89.49
2023-02-19T23:28:45.255Z,89.72
2023-02-19T23:31:12.077Z,89.74
2023-02-19T23:33:38.982Z,89.97
2023-02-19T23:36:05.925Z,89.70
2023-02-19T23:38:32.339Z,89.84
2023-02-19T23:40:59.124Z,90.42
2023-02-19T23:43:25.649Z,90.15
2023-02-19T23:45:51.981Z,90.39
2023-02-19T23:48:18.322Z,89.50
2023-02-19T23:50:44.830Z,89.80
2023-02-19T23:53:11.233Z,89.57
2023-02-19T23:55:37.550Z,89.47
2023-02-19T23:58:03.897Z,89.54
